Shoshone, California Weather observations

Data are for observation ending at time listed.
 Day   Time    Ave.   Ave.  Ave.  Vector   Max.   Stn.    Total    Solar   Ave.  
  of    of     Air    Rel.  Wind   Wind    Wind   Baro.  Precip.   Rad.    Soil  
Year   Day     Temp.  Hum.  Speed  Dir.    Gust   Pres.                    Temp. 
2014   (PST)    F      %     mph   deg.    mph     mb.     in.     W/m2     F   
------------------------------------------------------------------------------
 292   10:00   77.8    23    1.9    30      6.0    966     0.00     607    99999.0
 292   11:00   83.2    19    1.8   109      6.9    965     0.00     704    99999.0
 292   12:00   87.0    16    1.7    93      4.7    964     0.00     741    99999.0
 292   13:00   89.9    14    2.2   281      8.6    963     0.00     714    99999.0
 292   14:00   91.4    14    3.3   271      8.6    963     0.00     620    99999.0
 292   15:00   92.4    14    3.2   234     13.0    962     0.00     475    118.7
 292   16:00   91.6    14    3.9   190     11.6    962     0.00     287    106.6
 292   17:00   89.4    15    3.0   194      8.7    962     0.00      87    99.6
 292   18:00   81.9    21    0.0   188      2.0    962     0.00       2    96.1
 292   19:00   77.7    24    0.2   163      2.2    962     0.00       0    95.3
 292   20:00   72.0    28    1.2   319      3.4    963     0.00       0    98.1
 292   21:00   66.5    31    0.9   315      3.0    963     0.00       0    103.8
 292   22:00   66.1    31    0.1   324      1.2    963     0.00       0    108.9
 292   23:00   64.5    33    0.8   302      3.3    963     0.00       0    114.9
 293    0:00   62.1    36    0.4   306      1.5    964     0.00       0    121.5
 293    1:00   59.3    39    0.9   304      2.8    964     0.00       0    99999.0
 293    2:00   57.3    40    1.3   315      2.9    964     0.00       1    99999.0
 293    3:00   55.2    41    0.6    27      2.9    964     0.00       1    99999.0
 293    4:00   54.8    44    0.5    62      1.9    964     0.00       1    99999.0
 293    5:00   53.5    48    0.3    36      1.8    964     0.00       1    99999.0
 293    6:00   52.7    48    0.7    43      2.0    965     0.00       3    99999.0
 293    7:00   52.4    46    0.7   317      4.4    965     0.00      67    99999.0
 293    8:00   62.0    36    0.4   309      2.7    966     0.00     259    99999.0
 293    9:00   69.3    28    2.5   252      5.3    966     0.00     445    99999.0

Return to Shoshone, California graphs page.


Western Regional Climate Center,wrcc@dri.edu